sensor_id;sensor_type;location;lat;lon;timestamp;pressure;altitude;pressure_sealevel;temperature;humidity
62124;BME280;48110;47.532;19.078;2022-08-03T00:01:35;100437.66;;;21.34;63.98
62124;BME280;48110;47.532;19.078;2022-08-03T00:04:38;100439.53;;;21.10;64.13
62124;BME280;48110;47.532;19.078;2022-08-03T00:07:41;100428.38;;;20.95;64.65
62124;BME280;48110;47.532;19.078;2022-08-03T00:10:44;100426.03;;;20.87;65.54
62124;BME280;48110;47.532;19.078;2022-08-03T00:13:46;100432.47;;;20.74;66.20
62124;BME280;48110;47.532;19.078;2022-08-03T00:16:49;100431.19;;;20.65;66.54
62124;BME280;48110;47.532;19.078;2022-08-03T00:19:51;100433.75;;;20.60;67.02
62124;BME280;48110;47.532;19.078;2022-08-03T00:22:54;100437.03;;;20.62;67.90
62124;BME280;48110;47.532;19.078;2022-08-03T00:25:57;100443.47;;;20.61;67.52
62124;BME280;48110;47.532;19.078;2022-08-03T00:29:00;100448.19;;;20.65;66.92
62124;BME280;48110;47.532;19.078;2022-08-03T00:32:02;100450.97;;;20.59;67.02
62124;BME280;48110;47.532;19.078;2022-08-03T00:35:06;100449.78;;;20.55;67.20
62124;BME280;48110;47.532;19.078;2022-08-03T00:38:13;100450.53;;;20.62;67.46
62124;BME280;48110;47.532;19.078;2022-08-03T00:41:16;100454.75;;;20.69;67.67
62124;BME280;48110;47.532;19.078;2022-08-03T00:44:19;100448.03;;;20.60;68.25
62124;BME280;48110;47.532;19.078;2022-08-03T00:47:22;100458.91;;;20.54;68.11
62124;BME280;48110;47.532;19.078;2022-08-03T00:50:27;100448.62;;;20.62;68.04
62124;BME280;48110;47.532;19.078;2022-08-03T00:53:31;100455.53;;;20.58;68.36
62124;BME280;48110;47.532;19.078;2022-08-03T00:56:33;100451.66;;;20.54;69.26
62124;BME280;48110;47.532;19.078;2022-08-03T00:59:37;100456.91;;;20.49;69.76
62124;BME280;48110;47.532;19.078;2022-08-03T01:02:40;100454.69;;;20.46;69.61
62124;BME280;48110;47.532;19.078;2022-08-03T01:06:15;100463.19;;;20.31;70.23
62124;BME280;48110;47.532;19.078;2022-08-03T01:09:23;100468.88;;;20.23;70.64
62124;BME280;48110;47.532;19.078;2022-08-03T01:12:43;100457.22;;;20.11;71.46
62124;BME280;48110;47.532;19.078;2022-08-03T01:19:01;100465.09;;;19.94;73.34
62124;BME280;48110;47.532;19.078;2022-08-03T01:29:34;100470.31;;;19.78;74.17
62124;BME280;48110;47.532;19.078;2022-08-03T01:32:56;100476.94;;;19.75;74.51
62124;BME280;48110;47.532;19.078;2022-08-03T01:36:11;100473.31;;;19.70;74.90
62124;BME280;48110;47.532;19.078;2022-08-03T01:39:16;100476.69;;;19.65;75.63
62124;BME280;48110;47.532;19.078;2022-08-03T01:42:22;100484.34;;;19.62;75.51
62124;BME280;48110;47.532;19.078;2022-08-03T01:45:26;100481.75;;;19.55;75.87
62124;BME280;48110;47.532;19.078;2022-08-03T01:48:37;100481.34;;;19.51;76.05
62124;BME280;48110;47.532;19.078;2022-08-03T01:51:42;100478.50;;;19.46;76.30
62124;BME280;48110;47.532;19.078;2022-08-03T01:55:06;100471.31;;;19.40;76.65
62124;BME280;48110;47.532;19.078;2022-08-03T01:58:12;100472.56;;;19.38;77.00
62124;BME280;48110;47.532;19.078;2022-08-03T02:01:20;100469.31;;;19.36;77.35
62124;BME280;48110;47.532;19.078;2022-08-03T02:04:24;100468.50;;;19.53;76.59
62124;BME280;48110;47.532;19.078;2022-08-03T02:07:28;100475.31;;;19.56;75.84
62124;BME280;48110;47.532;19.078;2022-08-03T02:10:34;100467.16;;;19.44;76.77
62124;BME280;48110;47.532;19.078;2022-08-03T02:13:38;100461.97;;;19.43;76.70
62124;BME280;48110;47.532;19.078;2022-08-03T02:16:43;100466.97;;;19.39;76.73
62124;BME280;48110;47.532;19.078;2022-08-03T02:19:48;100467.87;;;19.33;76.83
62124;BME280;48110;47.532;19.078;2022-08-03T02:22:52;100469.81;;;19.26;77.43
62124;BME280;48110;47.532;19.078;2022-08-03T02:25:57;100468.16;;;19.25;78.34
62124;BME280;48110;47.532;19.078;2022-08-03T02:29:11;100468.84;;;19.21;78.31
62124;BME280;48110;47.532;19.078;2022-08-03T02:32:17;100469.50;;;19.16;78.48
62124;BME280;48110;47.532;19.078;2022-08-03T02:35:23;100462.91;;;19.12;78.62
62124;BME280;48110;47.532;19.078;2022-08-03T02:38:32;100461.09;;;19.06;78.99
62124;BME280;48110;47.532;19.078;2022-08-03T02:41:41;100471.03;;;19.05;79.61
62124;BME280;48110;47.532;19.078;2022-08-03T02:44:47;100468.34;;;19.05;80.80
62124;BME280;48110;47.532;19.078;2022-08-03T02:47:55;100476.28;;;19.19;80.48
62124;BME280;48110;47.532;19.078;2022-08-03T02:51:02;100476.38;;;19.30;80.63
62124;BME280;48110;47.532;19.078;2022-08-03T02:54:07;100479.91;;;19.31;81.72
62124;BME280;48110;47.532;19.078;2022-08-03T02:57:11;100473.47;;;19.32;81.78
62124;BME280;48110;47.532;19.078;2022-08-03T03:00:16;100479.66;;;19.32;82.41
62124;BME280;48110;47.532;19.078;2022-08-03T03:03:30;100477.44;;;19.29;82.47
62124;BME280;48110;47.532;19.078;2022-08-03T03:06:46;100484.06;;;19.27;83.36
62124;BME280;48110;47.532;19.078;2022-08-03T03:09:50;100479.59;;;19.21;84.30
62124;BME280;48110;47.532;19.078;2022-08-03T03:12:57;100481.25;;;19.22;85.59
62124;BME280;48110;47.532;19.078;2022-08-03T03:16:02;100474.09;;;19.09;86.01
62124;BME280;48110;47.532;19.078;2022-08-03T03:19:06;100475.47;;;18.93;86.75
62124;BME280;48110;47.532;19.078;2022-08-03T03:22:10;100483.44;;;18.82;87.83
62124;BME280;48110;47.532;19.078;2022-08-03T03:25:14;100480.38;;;18.78;88.35
62124;BME280;48110;47.532;19.078;2022-08-03T03:28:18;100479.38;;;18.73;88.55
62124;BME280;48110;47.532;19.078;2022-08-03T03:31:21;100480.69;;;18.63;88.77
62124;BME280;48110;47.532;19.078;2022-08-03T03:34:24;100478.41;;;18.60;88.30
62124;BME280;48110;47.532;19.078;2022-08-03T03:37:27;100475.62;;;18.74;87.46
62124;BME280;48110;47.532;19.078;2022-08-03T03:40:30;100482.13;;;18.91;88.42
62124;BME280;48110;47.532;19.078;2022-08-03T03:43:33;100483.81;;;18.85;88.21
62124;BME280;48110;47.532;19.078;2022-08-03T03:46:37;100484.84;;;18.84;89.54
62124;BME280;48110;47.532;19.078;2022-08-03T03:49:40;100488.31;;;18.91;88.97
62124;BME280;48110;47.532;19.078;2022-08-03T03:52:44;100485.16;;;19.01;87.97
62124;BME280;48110;47.532;19.078;2022-08-03T03:55:46;100490.31;;;19.02;87.45
62124;BME280;48110;47.532;19.078;2022-08-03T03:59:03;100489.19;;;19.10;86.79
62124;BME280;48110;47.532;19.078;2022-08-03T04:02:07;100486.50;;;19.10;86.49
62124;BME280;48110;47.532;19.078;2022-08-03T04:05:11;100490.78;;;19.18;89.62
62124;BME280;48110;47.532;19.078;2022-08-03T04:08:33;100488.41;;;19.28;85.32
62124;BME280;48110;47.532;19.078;2022-08-03T04:11:57;100494.81;;;19.27;86.60
62124;BME280;48110;47.532;19.078;2022-08-03T04:15:02;100502.09;;;19.26;85.62
62124;BME280;48110;47.532;19.078;2022-08-03T04:18:08;100504.94;;;19.31;85.77
62124;BME280;48110;47.532;19.078;2022-08-03T04:21:14;100506.97;;;19.36;85.54
62124;BME280;48110;47.532;19.078;2022-08-03T04:24:19;100512.09;;;19.44;85.98
62124;BME280;48110;47.532;19.078;2022-08-03T04:27:35;100517.31;;;19.57;84.25
62124;BME280;48110;47.532;19.078;2022-08-03T04:30:39;100521.44;;;19.60;84.34
62124;BME280;48110;47.532;19.078;2022-08-03T04:33:50;100514.41;;;19.59;85.70
62124;BME280;48110;47.532;19.078;2022-08-03T04:36:57;100513.69;;;19.70;84.88
62124;BME280;48110;47.532;19.078;2022-08-03T04:40:02;100520.78;;;19.82;86.69
62124;BME280;48110;47.532;19.078;2022-08-03T04:43:08;100517.03;;;19.83;86.78
62124;BME280;48110;47.532;19.078;2022-08-03T04:46:13;100517.34;;;19.93;87.95
62124;BME280;48110;47.532;19.078;2022-08-03T04:49:17;100520.31;;;20.04;87.22
62124;BME280;48110;47.532;19.078;2022-08-03T04:52:21;100520.84;;;20.12;87.83
62124;BME280;48110;47.532;19.078;2022-08-03T04:58:29;100536.59;;;20.27;87.91
62124;BME280;48110;47.532;19.078;2022-08-03T05:01:31;100543.81;;;20.33;88.12
62124;BME280;48110;47.532;19.078;2022-08-03T05:04:34;100545.69;;;20.32;87.71
62124;BME280;48110;47.532;19.078;2022-08-03T05:07:37;100549.09;;;20.39;86.84
62124;BME280;48110;47.532;19.078;2022-08-03T05:10:40;100547.84;;;20.42;86.41
62124;BME280;48110;47.532;19.078;2022-08-03T05:13:43;100552.91;;;20.50;85.00
62124;BME280;48110;47.532;19.078;2022-08-03T05:16:46;100559.13;;;20.51;84.52
62124;BME280;48110;47.532;19.078;2022-08-03T05:19:49;100554.34;;;20.64;83.93
62124;BME280;48110;47.532;19.078;2022-08-03T05:22:52;100557.12;;;20.88;83.00
62124;BME280;48110;47.532;19.078;2022-08-03T05:25:55;100558.91;;;20.94;81.85
62124;BME280;48110;47.532;19.078;2022-08-03T05:28:58;100563.94;;;21.02;82.46
62124;BME280;48110;47.532;19.078;2022-08-03T05:32:01;100566.00;;;21.18;82.30
62124;BME280;48110;47.532;19.078;2022-08-03T05:35:09;100569.53;;;21.30;81.53
62124;BME280;48110;47.532;19.078;2022-08-03T05:38:32;100570.03;;;21.50;81.18
62124;BME280;48110;47.532;19.078;2022-08-03T05:41:36;100569.56;;;21.77;79.92
62124;BME280;48110;47.532;19.078;2022-08-03T05:44:39;100571.66;;;21.75;79.37
62124;BME280;48110;47.532;19.078;2022-08-03T05:47:44;100574.91;;;21.88;79.45
62124;BME280;48110;47.532;19.078;2022-08-03T05:50:47;100570.50;;;21.82;80.55
62124;BME280;48110;47.532;19.078;2022-08-03T05:53:49;100573.41;;;21.81;79.15
62124;BME280;48110;47.532;19.078;2022-08-03T05:56:52;100581.84;;;22.07;78.18
62124;BME280;48110;47.532;19.078;2022-08-03T05:59:54;100584.88;;;22.23;77.29
62124;BME280;48110;47.532;19.078;2022-08-03T06:03:00;100581.59;;;22.21;77.06
62124;BME280;48110;47.532;19.078;2022-08-03T06:06:04;100583.19;;;22.45;77.19
62124;BME280;48110;47.532;19.078;2022-08-03T06:09:06;100584.62;;;22.64;74.92
62124;BME280;48110;47.532;19.078;2022-08-03T06:12:09;100592.34;;;22.84;73.63
62124;BME280;48110;47.532;19.078;2022-08-03T06:15:16;100587.34;;;22.92;73.18
62124;BME280;48110;47.532;19.078;2022-08-03T06:18:20;100589.09;;;22.99;72.77
62124;BME280;48110;47.532;19.078;2022-08-03T06:21:22;100599.00;;;23.10;71.77
62124;BME280;48110;47.532;19.078;2022-08-03T06:24:28;100592.53;;;23.11;71.04
62124;BME280;48110;47.532;19.078;2022-08-03T06:27:31;100593.84;;;23.25;71.02
62124;BME280;48110;47.532;19.078;2022-08-03T06:30:40;100593.78;;;23.36;71.11
62124;BME280;48110;47.532;19.078;2022-08-03T06:33:42;100599.84;;;23.60;69.80
62124;BME280;48110;47.532;19.078;2022-08-03T06:37:05;100602.34;;;23.62;68.94
62124;BME280;48110;47.532;19.078;2022-08-03T06:40:10;100597.94;;;23.77;69.02
62124;BME280;48110;47.532;19.078;2022-08-03T06:43:15;100594.22;;;24.00;67.20
62124;BME280;48110;47.532;19.078;2022-08-03T06:46:18;100604.44;;;24.15;67.38
62124;BME280;48110;47.532;19.078;2022-08-03T06:49:21;100601.72;;;24.15;66.05
62124;BME280;48110;47.532;19.078;2022-08-03T06:52:24;100599.91;;;24.42;66.05
62124;BME280;48110;47.532;19.078;2022-08-03T06:55:40;100606.87;;;24.82;63.54
62124;BME280;48110;47.532;19.078;2022-08-03T06:58:44;100595.72;;;25.05;62.00
62124;BME280;48110;47.532;19.078;2022-08-03T07:01:48;100601.28;;;25.20;59.43
62124;BME280;48110;47.532;19.078;2022-08-03T07:04:51;100608.53;;;25.46;58.38
62124;BME280;48110;47.532;19.078;2022-08-03T07:07:55;100605.81;;;25.41;59.54
62124;BME280;48110;47.532;19.078;2022-08-03T07:10:58;100599.25;;;25.69;57.68
62124;BME280;48110;47.532;19.078;2022-08-03T07:14:01;100600.50;;;25.57;57.82
62124;BME280;48110;47.532;19.078;2022-08-03T07:17:04;100597.13;;;25.44;58.36
62124;BME280;48110;47.532;19.078;2022-08-03T07:20:13;100601.72;;;25.76;56.67
62124;BME280;48110;47.532;19.078;2022-08-03T07:23:18;100607.06;;;26.08;55.76
62124;BME280;48110;47.532;19.078;2022-08-03T07:26:21;100611.53;;;27.01;53.86
62124;BME280;48110;47.532;19.078;2022-08-03T07:29:23;100610.16;;;27.34;52.84
62124;BME280;48110;47.532;19.078;2022-08-03T07:32:26;100610.91;;;27.95;50.06
62124;BME280;48110;47.532;19.078;2022-08-03T07:35:32;100611.88;;;28.40;49.56
62124;BME280;48110;47.532;19.078;2022-08-03T07:38:35;100607.09;;;28.01;50.08
62124;BME280;48110;47.532;19.078;2022-08-03T07:41:38;100609.16;;;29.28;46.61
62124;BME280;48110;47.532;19.078;2022-08-03T07:44:43;100602.31;;;30.36;44.20
62124;BME280;48110;47.532;19.078;2022-08-03T07:47:45;100599.06;;;30.57;43.08
62124;BME280;48110;47.532;19.078;2022-08-03T07:50:55;100602.00;;;31.36;41.54
62124;BME280;48110;47.532;19.078;2022-08-03T07:53:58;100606.16;;;31.47;40.90
62124;BME280;48110;47.532;19.078;2022-08-03T07:57:02;100604.91;;;31.26;41.42
62124;BME280;48110;47.532;19.078;2022-08-03T08:00:07;100599.81;;;30.63;43.74
62124;BME280;48110;47.532;19.078;2022-08-03T08:03:14;100593.06;;;31.44;41.34
62124;BME280;48110;47.532;19.078;2022-08-03T08:06:17;100591.41;;;31.29;41.38
62124;BME280;48110;47.532;19.078;2022-08-03T08:09:20;100598.75;;;32.48;38.82
62124;BME280;48110;47.532;19.078;2022-08-03T08:12:22;100599.94;;;33.05;37.74
62124;BME280;48110;47.532;19.078;2022-08-03T08:15:25;100599.84;;;33.63;35.55
62124;BME280;48110;47.532;19.078;2022-08-03T08:18:28;100600.59;;;33.25;36.64
62124;BME280;48110;47.532;19.078;2022-08-03T08:21:33;100593.84;;;32.95;36.88
62124;BME280;48110;47.532;19.078;2022-08-03T08:25:03;100592.53;;;34.29;34.29
62124;BME280;48110;47.532;19.078;2022-08-03T08:28:06;100597.13;;;31.14;40.64
62124;BME280;48110;47.532;19.078;2022-08-03T08:31:28;100591.62;;;32.06;38.84
62124;BME280;48110;47.532;19.078;2022-08-03T08:34:31;100592.50;;;32.70;37.05
62124;BME280;48110;47.532;19.078;2022-08-03T08:37:34;100590.59;;;32.57;36.57
62124;BME280;48110;47.532;19.078;2022-08-03T08:40:39;100588.78;;;34.25;33.79
62124;BME280;48110;47.532;19.078;2022-08-03T08:43:42;100599.06;;;35.37;32.28
62124;BME280;48110;47.532;19.078;2022-08-03T08:46:45;100587.66;;;35.55;31.56
62124;BME280;48110;47.532;19.078;2022-08-03T08:49:51;100591.47;;;36.47;29.66
62124;BME280;48110;47.532;19.078;2022-08-03T08:53:11;100591.41;;;36.35;30.17
62124;BME280;48110;47.532;19.078;2022-08-03T08:56:24;100589.81;;;34.64;32.27
62124;BME280;48110;47.532;19.078;2022-08-03T08:59:30;100596.84;;;33.51;34.80
62124;BME280;48110;47.532;19.078;2022-08-03T09:02:51;100587.62;;;35.64;30.37
62124;BME280;48110;47.532;19.078;2022-08-03T09:05:54;100584.91;;;34.35;32.03
62124;BME280;48110;47.532;19.078;2022-08-03T09:08:57;100582.03;;;34.48;32.79
62124;BME280;48110;47.532;19.078;2022-08-03T09:12:00;100582.53;;;36.71;28.69
62124;BME280;48110;47.532;19.078;2022-08-03T09:15:26;100574.19;;;36.50;28.75
62124;BME280;48110;47.532;19.078;2022-08-03T09:18:30;100571.41;;;36.80;29.36
62124;BME280;48110;47.532;19.078;2022-08-03T09:21:34;100576.47;;;37.89;27.78
62124;BME280;48110;47.532;19.078;2022-08-03T09:24:52;100573.75;;;38.65;26.41
62124;BME280;48110;47.532;19.078;2022-08-03T09:28:16;100577.00;;;36.92;28.71
62124;BME280;48110;47.532;19.078;2022-08-03T09:31:44;100568.75;;;37.37;28.20
62124;BME280;48110;47.532;19.078;2022-08-03T09:34:50;100572.53;;;37.77;27.06
62124;BME280;48110;47.532;19.078;2022-08-03T09:38:22;100569.47;;;36.01;29.26
62124;BME280;48110;47.532;19.078;2022-08-03T09:41:27;100560.13;;;34.52;32.03
62124;BME280;48110;47.532;19.078;2022-08-03T09:44:41;100566.88;;;36.54;28.89
62124;BME280;48110;47.532;19.078;2022-08-03T09:47:44;100555.91;;;37.65;27.50
62124;BME280;48110;47.532;19.078;2022-08-03T09:50:52;100555.13;;;39.49;25.08
62124;BME280;48110;47.532;19.078;2022-08-03T09:54:00;100553.16;;;39.22;25.54
62124;BME280;48110;47.532;19.078;2022-08-03T09:57:19;100545.28;;;38.16;26.54
62124;BME280;48110;47.532;19.078;2022-08-03T10:00:23;100554.12;;;37.49;27.30
62124;BME280;48110;47.532;19.078;2022-08-03T10:03:28;100543.00;;;37.24;25.26
62124;BME280;48110;47.532;19.078;2022-08-03T10:06:31;100536.63;;;35.06;30.18
62124;BME280;48110;47.532;19.078;2022-08-03T10:09:36;100540.84;;;35.12;28.44
62124;BME280;48110;47.532;19.078;2022-08-03T10:12:40;100531.34;;;36.24;27.74
62124;BME280;48110;47.532;19.078;2022-08-03T10:15:44;100535.19;;;38.88;24.54
62124;BME280;48110;47.532;19.078;2022-08-03T10:19:07;100532.19;;;39.83;23.49
62124;BME280;48110;47.532;19.078;2022-08-03T10:22:25;100531.69;;;40.86;22.27
62124;BME280;48110;47.532;19.078;2022-08-03T10:25:29;100525.16;;;40.40;22.62
62124;BME280;48110;47.532;19.078;2022-08-03T10:28:39;100523.72;;;41.04;21.99
62124;BME280;48110;47.532;19.078;2022-08-03T10:31:47;100526.09;;;39.78;23.05
62124;BME280;48110;47.532;19.078;2022-08-03T10:35:05;100519.47;;;41.33;21.62
62124;BME280;48110;47.532;19.078;2022-08-03T10:38:28;100507.34;;;42.23;20.57
62124;BME280;48110;47.532;19.078;2022-08-03T10:41:40;100514.00;;;41.40;21.48
62124;BME280;48110;47.532;19.078;2022-08-03T10:44:44;100502.66;;;42.61;19.91
62124;BME280;48110;47.532;19.078;2022-08-03T10:47:47;100505.59;;;41.59;20.78
62124;BME280;48110;47.532;19.078;2022-08-03T10:50:51;100499.22;;;43.48;19.63
62124;BME280;48110;47.532;19.078;2022-08-03T10:53:54;100497.97;;;44.80;18.23
62124;BME280;48110;47.532;19.078;2022-08-03T10:56:59;100498.13;;;43.60;19.54
62124;BME280;48110;47.532;19.078;2022-08-03T11:00:47;100492.78;;;43.44;19.18
62124;BME280;48110;47.532;19.078;2022-08-03T11:10:29;100479.81;;;44.31;17.92
62124;BME280;48110;47.532;19.078;2022-08-03T11:13:33;100469.75;;;43.58;18.77
62124;BME280;48110;47.532;19.078;2022-08-03T11:16:38;100480.28;;;46.35;15.88
62124;BME280;48110;47.532;19.078;2022-08-03T11:19:46;100467.66;;;45.21;17.04
62124;BME280;48110;47.532;19.078;2022-08-03T11:22:59;100467.16;;;44.66;16.43
62124;BME280;48110;47.532;19.078;2022-08-03T11:26:17;100464.41;;;41.98;19.15
62124;BME280;48110;47.532;19.078;2022-08-03T11:29:28;100462.47;;;41.49;19.47
62124;BME280;48110;47.532;19.078;2022-08-03T11:36:00;100455.19;;;43.31;17.58
62124;BME280;48110;47.532;19.078;2022-08-03T11:39:14;100447.81;;;43.09;18.16
62124;BME280;48110;47.532;19.078;2022-08-03T11:45:24;100452.28;;;46.21;15.41
62124;BME280;48110;47.532;19.078;2022-08-03T11:48:33;100448.84;;;46.72;15.01
62124;BME280;48110;47.532;19.078;2022-08-03T11:51:36;100438.88;;;45.45;16.42
62124;BME280;48110;47.532;19.078;2022-08-03T11:54:41;100436.84;;;45.24;15.82
62124;BME280;48110;47.532;19.078;2022-08-03T11:57:45;100437.06;;;46.22;14.73
62124;BME280;48110;47.532;19.078;2022-08-03T12:01:08;100442.44;;;45.35;15.60
62124;BME280;48110;47.532;19.078;2022-08-03T12:04:12;100438.28;;;46.94;14.07
62124;BME280;48110;47.532;19.078;2022-08-03T12:07:17;100424.47;;;47.14;13.53
62124;BME280;48110;47.532;19.078;2022-08-03T12:10:47;100427.63;;;47.19;13.73
62124;BME280;48110;47.532;19.078;2022-08-03T12:13:50;100424.00;;;49.11;13.08
62124;BME280;48110;47.532;19.078;2022-08-03T12:17:12;100429.25;;;47.95;13.10
62124;BME280;48110;47.532;19.078;2022-08-03T12:20:21;100425.97;;;48.04;14.20
62124;BME280;48110;47.532;19.078;2022-08-03T12:23:37;100426.09;;;43.94;16.01
62124;BME280;48110;47.532;19.078;2022-08-03T12:26:48;100416.59;;;41.43;17.78
62124;BME280;48110;47.532;19.078;2022-08-03T12:30:02;100414.66;;;39.99;19.76
62124;BME280;48110;47.532;19.078;2022-08-03T12:36:20;100407.91;;;44.42;16.37
62124;BME280;48110;47.532;19.078;2022-08-03T12:39:25;100400.59;;;46.91;14.48
62124;BME280;48110;47.532;19.078;2022-08-03T12:42:34;100398.44;;;47.88;13.52
62124;BME280;48110;47.532;19.078;2022-08-03T12:45:37;100394.34;;;45.72;15.10
62124;BME280;48110;47.532;19.078;2022-08-03T12:49:09;100387.69;;;39.64;20.62
62124;BME280;48110;47.532;19.078;2022-08-03T12:52:12;100382.19;;;40.41;20.22
62124;BME280;48110;47.532;19.078;2022-08-03T12:55:19;100384.81;;;43.15;17.33
62124;BME280;48110;47.532;19.078;2022-08-03T12:58:34;100378.00;;;44.89;16.36
62124;BME280;48110;47.532;19.078;2022-08-03T13:01:38;100383.94;;;43.55;16.57
62124;BME280;48110;47.532;19.078;2022-08-03T13:04:57;100376.44;;;44.88;15.93
62124;BME280;48110;47.532;19.078;2022-08-03T13:08:01;100373.41;;;46.01;15.11
62124;BME280;48110;47.532;19.078;2022-08-03T13:14:20;100370.81;;;45.41;15.29
62124;BME280;48110;47.532;19.078;2022-08-03T13:17:25;100362.81;;;48.62;12.90
62124;BME280;48110;47.532;19.078;2022-08-03T13:20:29;100365.78;;;48.55;13.15
62124;BME280;48110;47.532;19.078;2022-08-03T13:23:32;100364.22;;;50.58;10.99
62124;BME280;48110;47.532;19.078;2022-08-03T13:26:35;100357.75;;;51.06;11.22
62124;BME280;48110;47.532;19.078;2022-08-03T13:29:38;100358.25;;;48.18;12.79
62124;BME280;48110;47.532;19.078;2022-08-03T13:32:41;100347.78;;;46.68;13.56
62124;BME280;48110;47.532;19.078;2022-08-03T13:35:43;100356.13;;;48.52;12.97
62124;BME280;48110;47.532;19.078;2022-08-03T13:38:46;100356.13;;;48.52;11.83
62124;BME280;48110;47.532;19.078;2022-08-03T13:41:49;100355.44;;;50.00;11.08
62124;BME280;48110;47.532;19.078;2022-08-03T13:44:52;100348.50;;;47.95;12.76
62124;BME280;48110;47.532;19.078;2022-08-03T13:47:54;100352.94;;;49.24;11.79
62124;BME280;48110;47.532;19.078;2022-08-03T13:50:58;100338.09;;;47.59;12.73
62124;BME280;48110;47.532;19.078;2022-08-03T13:54:06;100340.47;;;47.94;12.55
62124;BME280;48110;47.532;19.078;2022-08-03T13:57:09;100340.84;;;47.96;12.45
62124;BME280;48110;47.532;19.078;2022-08-03T14:00:33;100329.00;;;46.62;13.81
62124;BME280;48110;47.532;19.078;2022-08-03T14:03:36;100330.00;;;44.48;15.02
62124;BME280;48110;47.532;19.078;2022-08-03T14:06:38;100329.09;;;46.44;13.37
62124;BME280;48110;47.532;19.078;2022-08-03T14:09:47;100322.84;;;47.56;12.75
62124;BME280;48110;47.532;19.078;2022-08-03T14:12:50;100326.38;;;49.44;11.12
62124;BME280;48110;47.532;19.078;2022-08-03T14:15:52;100323.50;;;49.48;11.45
62124;BME280;48110;47.532;19.078;2022-08-03T14:18:57;100319.63;;;48.95;11.92
62124;BME280;48110;47.532;19.078;2022-08-03T14:22:03;100317.22;;;47.56;12.65
62124;BME280;48110;47.532;19.078;2022-08-03T14:25:08;100299.22;;;48.14;11.82
62124;BME280;48110;47.532;19.078;2022-08-03T14:28:12;100302.28;;;48.50;11.50
62124;BME280;48110;47.532;19.078;2022-08-03T14:31:14;100293.16;;;46.25;12.92
62124;BME280;48110;47.532;19.078;2022-08-03T14:34:37;100285.94;;;44.16;14.48
62124;BME280;48110;47.532;19.078;2022-08-03T14:37:40;100273.69;;;37.72;19.74
62124;BME280;48110;47.532;19.078;2022-08-03T14:40:49;100278.69;;;36.21;21.92
62124;BME280;48110;47.532;19.078;2022-08-03T14:43:52;100282.09;;;35.85;22.06
62124;BME280;48110;47.532;19.078;2022-08-03T14:47:03;100273.38;;;36.16;21.72
62124;BME280;48110;47.532;19.078;2022-08-03T14:50:07;100271.06;;;35.44;22.53
62124;BME280;48110;47.532;19.078;2022-08-03T14:53:30;100274.13;;;34.45;23.98
62124;BME280;48110;47.532;19.078;2022-08-03T14:56:32;100264.28;;;34.36;24.74
62124;BME280;48110;47.532;19.078;2022-08-03T14:59:35;100262.53;;;34.23;24.47
62124;BME280;48110;47.532;19.078;2022-08-03T15:02:57;100265.72;;;34.42;24.71
62124;BME280;48110;47.532;19.078;2022-08-03T15:06:00;100270.16;;;34.72;24.60
62124;BME280;48110;47.532;19.078;2022-08-03T15:09:04;100265.13;;;36.07;22.96
62124;BME280;48110;47.532;19.078;2022-08-03T15:12:25;100271.88;;;38.04;21.11
62124;BME280;48110;47.532;19.078;2022-08-03T15:15:27;100269.56;;;38.22;19.89
62124;BME280;48110;47.532;19.078;2022-08-03T15:18:31;100277.31;;;35.53;23.32
62124;BME280;48110;47.532;19.078;2022-08-03T15:21:33;100265.09;;;34.28;24.90
62124;BME280;48110;47.532;19.078;2022-08-03T15:24:49;100264.66;;;33.91;25.62
62124;BME280;48110;47.532;19.078;2022-08-03T15:27:52;100269.38;;;33.74;25.12
62124;BME280;48110;47.532;19.078;2022-08-03T15:31:06;100269.91;;;35.65;23.39
62124;BME280;48110;47.532;19.078;2022-08-03T15:34:08;100267.16;;;36.64;21.57
62124;BME280;48110;47.532;19.078;2022-08-03T15:37:13;100260.72;;;36.15;22.57
62124;BME280;48110;47.532;19.078;2022-08-03T15:40:24;100263.69;;;34.60;24.21
62124;BME280;48110;47.532;19.078;2022-08-03T15:43:27;100261.25;;;33.60;25.75
62124;BME280;48110;47.532;19.078;2022-08-03T15:46:30;100257.13;;;33.06;26.27
62124;BME280;48110;47.532;19.078;2022-08-03T15:49:34;100261.94;;;32.52;27.10
62124;BME280;48110;47.532;19.078;2022-08-03T15:52:36;100252.81;;;32.12;27.42
62124;BME280;48110;47.532;19.078;2022-08-03T15:55:39;100253.75;;;32.08;27.60
62124;BME280;48110;47.532;19.078;2022-08-03T15:58:42;100259.22;;;32.08;27.98
62124;BME280;48110;47.532;19.078;2022-08-03T16:02:05;100257.25;;;32.00;28.29
62124;BME280;48110;47.532;19.078;2022-08-03T16:05:26;100248.31;;;31.72;29.23
62124;BME280;48110;47.532;19.078;2022-08-03T16:08:47;100257.41;;;31.81;29.20
62124;BME280;48110;47.532;19.078;2022-08-03T16:11:49;100248.25;;;32.08;27.95
62124;BME280;48110;47.532;19.078;2022-08-03T16:14:52;100252.06;;;32.51;27.69
62124;BME280;48110;47.532;19.078;2022-08-03T16:17:55;100245.62;;;32.56;28.15
62124;BME280;48110;47.532;19.078;2022-08-03T16:20:59;100250.75;;;32.88;26.80
62124;BME280;48110;47.532;19.078;2022-08-03T16:24:02;100256.88;;;33.25;26.27
62124;BME280;48110;47.532;19.078;2022-08-03T16:27:09;100252.22;;;32.77;26.63
62124;BME280;48110;47.532;19.078;2022-08-03T16:30:32;100246.50;;;32.73;27.24
62124;BME280;48110;47.532;19.078;2022-08-03T16:33:35;100254.00;;;31.75;28.04
62124;BME280;48110;47.532;19.078;2022-08-03T16:36:38;100250.37;;;31.66;27.67
62124;BME280;48110;47.532;19.078;2022-08-03T16:39:40;100252.69;;;33.70;25.51